createdAt,value
2022-10-10T00:00:23.827Z,100046.31
2022-10-10T00:02:51.529Z,100041.97
2022-10-10T00:05:18.837Z,100048.03
2022-10-10T00:07:45.967Z,100052.19
2022-10-10T00:10:13.364Z,100044.53
2022-10-10T00:12:40.478Z,100047.94
2022-10-10T00:15:07.947Z,100042.28
2022-10-10T00:17:35.469Z,100042.88
2022-10-10T00:20:03.073Z,100041.16
2022-10-10T00:22:30.226Z,100036.44
2022-10-10T00:25:00.213Z,100037.66
2022-10-10T00:27:27.348Z,100035.06
2022-10-10T00:29:54.520Z,100037.16
2022-10-10T00:32:21.904Z,100038.78
2022-10-10T00:34:49.051Z,100035.19
2022-10-10T00:37:16.178Z,100022.88
2022-10-10T00:39:43.591Z,100033.22
2022-10-10T00:42:12.101Z,100026.91
2022-10-10T00:44:41.132Z,100024.16
2022-10-10T00:47:08.714Z,100024.50
2022-10-10T00:49:36.813Z,100019.56
2022-10-10T00:52:03.938Z,100017.16
2022-10-10T00:54:32.320Z,100014.59
2022-10-10T00:57:00.942Z,100010.31
2022-10-10T00:59:28.155Z,100012.94
2022-10-10T01:01:55.542Z,100011.25
2022-10-10T01:04:33.045Z,100007.25
2022-10-10T01:07:00.672Z,100005.25
2022-10-10T01:09:28.140Z,99998.44
2022-10-10T01:11:55.952Z,100005.31
2022-10-10T01:14:40.462Z,100001.12
2022-10-10T01:17:11.407Z,100005.75
2022-10-10T01:19:57.654Z,99999.69
2022-10-10T01:22:24.708Z,100007.31
2022-10-10T01:24:52.036Z,99995.25
2022-10-10T01:27:45.385Z,100002.84
2022-10-10T01:30:17.059Z,100007.34
2022-10-10T01:32:44.391Z,99997.25
2022-10-10T01:35:20.545Z,99997.09
2022-10-10T01:37:54.924Z,99990.38
2022-10-10T01:40:45.257Z,99990.91
2022-10-10T01:43:12.626Z,99998.50
2022-10-10T01:45:50.143Z,99992.63
2022-10-10T01:48:18.465Z,99982.06
2022-10-10T01:50:54.619Z,99987.56
2022-10-10T01:53:24.118Z,99989.03
2022-10-10T01:55:57.457Z,99990.66
2022-10-10T01:58:27.620Z,99993.91
2022-10-10T02:00:57.823Z,99999.28
2022-10-10T02:03:29.920Z,99999.16
2022-10-10T02:05:59.681Z,99992.97
2022-10-10T02:08:28.008Z,99989.22
2022-10-10T02:10:59.388Z,99989.56
2022-10-10T02:13:28.469Z,99990.62
2022-10-10T02:15:55.622Z,99988.19
2022-10-10T02:18:23.694Z,99987.41
2022-10-10T02:20:51.187Z,99988.22
2022-10-10T02:23:18.329Z,99984.91
2022-10-10T02:25:47.868Z,99993.66
2022-10-10T02:28:44.681Z,99988.38
2022-10-10T02:31:12.895Z,99983.78
2022-10-10T02:33:47.175Z,99989.62
2022-10-10T02:36:14.851Z,99987.63
2022-10-10T02:38:42.342Z,99988.97
2022-10-10T02:41:09.875Z,99994.22
2022-10-10T02:43:37.036Z,99992.97
2022-10-10T02:46:04.879Z,99991.69
2022-10-10T02:48:32.000Z,99990.19
2022-10-10T02:50:59.236Z,99992.13
2022-10-10T02:53:26.631Z,99986.59
2022-10-10T02:55:53.776Z,99986.31
2022-10-10T02:58:21.006Z,99980.13
2022-10-10T03:00:48.429Z,99984.66
2022-10-10T03:03:15.567Z,99978.56
2022-10-10T03:05:42.717Z,99981.72
2022-10-10T03:08:11.743Z,99976.97
2022-10-10T03:10:39.137Z,99982.41
2022-10-10T03:13:06.270Z,99985.34
2022-10-10T03:15:33.655Z,99985.81
2022-10-10T03:18:00.770Z,99982.38
2022-10-10T03:20:28.014Z,99981.56
2022-10-10T03:22:55.408Z,99973.00
2022-10-10T03:25:22.524Z,99977.34
2022-10-10T03:27:49.658Z,99967.94
2022-10-10T03:30:17.043Z,99973.69
2022-10-10T03:32:44.171Z,99976.03
2022-10-10T03:35:11.295Z,99971.47
2022-10-10T03:37:38.671Z,99973.56
2022-10-10T03:40:06.040Z,99980.78
2022-10-10T03:42:33.192Z,99970.97
2022-10-10T03:45:00.582Z,99967.19
2022-10-10T03:47:27.707Z,99975.31
2022-10-10T03:49:54.825Z,99973.28
2022-10-10T03:52:22.220Z,99972.19
2022-10-10T03:54:49.329Z,99972.94
2022-10-10T03:57:16.511Z,99970.50
2022-10-10T03:59:43.864Z,99975.50
2022-10-10T04:02:10.988Z,99975.56
2022-10-10T04:04:38.370Z,99974.22
2022-10-10T04:07:05.474Z,99973.81
2022-10-10T04:09:32.731Z,99978.34
2022-10-10T04:12:00.102Z,99975.81
2022-10-10T04:14:27.239Z,99967.19
2022-10-10T04:16:54.425Z,99969.25
2022-10-10T04:19:24.713Z,99971.06
2022-10-10T04:21:51.920Z,99964.56
2022-10-10T04:24:19.111Z,99966.53
2022-10-10T04:26:46.491Z,99974.22
2022-10-10T04:29:13.629Z,99963.16
2022-10-10T04:31:40.745Z,99958.22
2022-10-10T04:34:08.140Z,99962.00
2022-10-10T04:36:35.243Z,99962.22
2022-10-10T04:39:02.412Z,99968.81
2022-10-10T04:41:29.794Z,99967.72
2022-10-10T04:43:56.914Z,99971.13
2022-10-10T04:46:24.022Z,99976.59
2022-10-10T04:48:51.401Z,99981.91
2022-10-10T04:51:18.752Z,99970.03
2022-10-10T04:53:50.068Z,99972.28
2022-10-10T04:56:17.910Z,99976.75
2022-10-10T04:58:45.016Z,99982.12
2022-10-10T05:01:12.185Z,99982.53
2022-10-10T05:03:39.581Z,99984.47
2022-10-10T05:06:06.743Z,99981.50
2022-10-10T05:08:33.862Z,99982.03
2022-10-10T05:11:01.374Z,99974.69
2022-10-10T05:13:28.472Z,99985.09
2022-10-10T05:15:55.565Z,99973.25
2022-10-10T05:18:23.035Z,99979.00
2022-10-10T05:20:50.159Z,99977.34
2022-10-10T05:23:17.315Z,99968.06
2022-10-10T05:25:45.303Z,99970.56
2022-10-10T05:28:12.553Z,99987.25
2022-10-10T05:30:39.751Z,99984.00
2022-10-10T05:33:07.113Z,99979.50
2022-10-10T05:35:34.214Z,99981.84
2022-10-10T05:38:01.320Z,99983.19
2022-10-10T05:40:28.715Z,99977.94
2022-10-10T05:42:55.834Z,99983.72
2022-10-10T05:45:22.958Z,99979.94
2022-10-10T05:47:50.361Z,99990.81
2022-10-10T05:50:22.868Z,99993.84
2022-10-10T05:52:50.244Z,99987.94
2022-10-10T05:55:17.790Z,99990.25
2022-10-10T05:57:44.919Z,99992.75
2022-10-10T06:00:12.298Z,99992.13
2022-10-10T06:02:39.730Z,99993.41
2022-10-10T06:05:07.063Z,100001.16
2022-10-10T06:07:59.024Z,99997.09
2022-10-10T06:10:21.562Z,100007.81
2022-10-10T06:12:48.839Z,99994.75
2022-10-10T06:15:16.175Z,99999.97
2022-10-10T06:17:43.586Z,100000.28
2022-10-10T06:20:10.694Z,99999.25
2022-10-10T06:22:37.830Z,99998.88
2022-10-10T06:25:15.154Z,99995.03
2022-10-10T06:27:51.301Z,99991.41
2022-10-10T06:30:18.693Z,99990.22
2022-10-10T06:32:45.814Z,99997.62
2022-10-10T06:35:13.004Z,99990.12
2022-10-10T06:37:40.376Z,99991.66
2022-10-10T06:40:07.992Z,99997.19
2022-10-10T06:42:35.130Z,99995.50
2022-10-10T06:45:03.767Z,99993.69
2022-10-10T06:47:30.925Z,99986.66
2022-10-10T06:49:58.121Z,99989.78
2022-10-10T06:52:25.684Z,99986.94
2022-10-10T06:54:52.861Z,100000.06
2022-10-10T06:57:19.988Z,99992.03
2022-10-10T06:59:47.387Z,99989.72
2022-10-10T07:02:14.497Z,99994.09
2022-10-10T07:04:41.624Z,99994.19
2022-10-10T07:07:09.595Z,99987.38
2022-10-10T07:09:36.785Z,99985.34
2022-10-10T07:12:04.571Z,99988.84
2022-10-10T07:14:31.923Z,99989.41
2022-10-10T07:16:59.105Z,99988.59
2022-10-10T07:19:26.220Z,99998.03
2022-10-10T07:21:53.587Z,99986.00
2022-10-10T07:24:20.703Z,99986.94
2022-10-10T07:26:47.842Z,100000.69
2022-10-10T07:29:15.211Z,99986.06
2022-10-10T07:31:42.353Z,99986.94
2022-10-10T07:34:09.478Z,99995.59
2022-10-10T07:36:37.719Z,99998.31
2022-10-10T07:39:05.594Z,99991.28
2022-10-10T07:41:32.722Z,99991.31
2022-10-10T07:44:00.088Z,99986.94
2022-10-10T07:46:27.299Z,99992.09
2022-10-10T07:48:55.290Z,99995.50
2022-10-10T07:51:22.673Z,99997.03
2022-10-10T07:53:51.149Z,99994.63
2022-10-10T07:56:18.269Z,99999.75
2022-10-10T07:58:45.662Z,99998.66
2022-10-10T08:01:13.183Z,99993.84
2022-10-10T08:03:40.526Z,99990.31
2022-10-10T08:06:09.205Z,99993.78
2022-10-10T08:08:46.001Z,99999.78
2022-10-10T08:11:16.167Z,99976.47
2022-10-10T08:13:43.288Z,99984.31
2022-10-10T08:16:10.562Z,99982.44
2022-10-10T08:18:37.949Z,99979.91
2022-10-10T08:21:06.289Z,99978.19
2022-10-10T08:23:33.420Z,99982.31
2022-10-10T08:26:01.457Z,99975.47
2022-10-10T08:28:28.701Z,99970.81
2022-10-10T08:30:56.044Z,99964.72
2022-10-10T08:33:26.101Z,99967.34
2022-10-10T08:35:53.220Z,99973.72
2022-10-10T08:38:20.343Z,99971.81
2022-10-10T08:40:51.079Z,99971.19
2022-10-10T08:43:44.639Z,99965.88
2022-10-10T08:46:16.699Z,99964.06
2022-10-10T08:48:43.805Z,99963.31
2022-10-10T08:51:12.632Z,99963.28
2022-10-10T08:53:49.428Z,99954.06
2022-10-10T08:56:18.584Z,99955.25
2022-10-10T08:58:47.171Z,99948.75
2022-10-10T09:01:25.091Z,99952.50
2022-10-10T09:03:56.208Z,99944.97
2022-10-10T09:06:42.132Z,99948.88
2022-10-10T09:09:12.526Z,99946.06
2022-10-10T09:11:39.575Z,99945.22
2022-10-10T09:14:14.286Z,99946.78
2022-10-10T09:16:47.396Z,99959.59
2022-10-10T09:19:24.481Z,99941.75
2022-10-10T09:21:53.523Z,99934.66
2022-10-10T09:24:22.973Z,99939.37
2022-10-10T09:26:51.999Z,99937.59
2022-10-10T09:29:27.975Z,99938.22
2022-10-10T09:32:07.887Z,99935.28
2022-10-10T09:34:36.596Z,99940.97
2022-10-10T09:37:03.820Z,99935.84
2022-10-10T09:39:51.336Z,99943.28
2022-10-10T09:42:19.135Z,99938.16
2022-10-10T09:44:46.493Z,99942.69
2022-10-10T09:47:14.229Z,99930.81
2022-10-10T09:49:41.755Z,99941.50
2022-10-10T09:52:25.710Z,99936.12
2022-10-10T09:54:55.710Z,99935.84
2022-10-10T09:57:23.157Z,99930.72
2022-10-10T09:59:50.294Z,99931.00
2022-10-10T10:02:17.728Z,99932.81
2022-10-10T10:04:45.247Z,99914.47
2022-10-10T10:07:20.035Z,99923.72
2022-10-10T10:09:51.436Z,99933.72
2022-10-10T10:12:21.305Z,99928.50
2022-10-10T10:14:48.699Z,99929.28
2022-10-10T10:17:16.890Z,99927.63
2022-10-10T10:19:44.517Z,99914.31
2022-10-10T10:22:27.258Z,99908.72
2022-10-10T10:24:54.432Z,99917.53
2022-10-10T10:27:22.893Z,99902.72
2022-10-10T10:29:54.273Z,99911.16
2022-10-10T10:32:26.577Z,99914.06
2022-10-10T10:35:00.904Z,99900.28
2022-10-10T10:37:34.425Z,99898.81
2022-10-10T10:40:13.421Z,99897.50
2022-10-10T10:42:54.283Z,99888.53
2022-10-10T10:45:21.328Z,99894.19
2022-10-10T10:47:53.642Z,99883.66
2022-10-10T10:50:26.334Z,99886.91
2022-10-10T10:52:56.903Z,99880.25
2022-10-10T10:55:26.362Z,99877.41
2022-10-10T10:58:22.527Z,99875.28
2022-10-10T11:01:24.259Z,99874.91
2022-10-10T11:05:17.598Z,99871.72
2022-10-10T11:07:20.047Z,99868.09
2022-10-10T11:09:51.085Z,99863.87
2022-10-10T11:12:31.316Z,99863.78
2022-10-10T11:15:01.287Z,99853.31
2022-10-10T11:17:36.275Z,99870.00
2022-10-10T11:20:19.988Z,99866.03
2022-10-10T11:22:51.972Z,99858.22
2022-10-10T11:25:23.418Z,99851.13
2022-10-10T11:27:52.729Z,99848.31
2022-10-10T11:30:20.028Z,99840.06
2022-10-10T11:32:47.743Z,99839.13
2022-10-10T11:35:33.786Z,99839.97
2022-10-10T11:38:03.334Z,99829.38
2022-10-10T11:40:33.566Z,99832.28
2022-10-10T11:43:02.657Z,99829.97
2022-10-10T11:45:31.251Z,99829.34
2022-10-10T11:48:04.434Z,99826.31
2022-10-10T11:50:32.991Z,99813.25
2022-10-10T11:53:26.513Z,99822.25
2022-10-10T11:55:53.855Z,99821.22
2022-10-10T11:58:26.156Z,99817.06
2022-10-10T12:00:55.099Z,99818.63
2022-10-10T12:03:24.017Z,99813.31
2022-10-10T12:05:53.691Z,99816.38
2022-10-10T12:08:22.307Z,99800.06
2022-10-10T12:10:53.784Z,99797.31
2022-10-10T12:13:23.860Z,99799.69
2022-10-10T12:15:51.591Z,99797.38
2022-10-10T12:18:24.433Z,99788.91
2022-10-10T12:21:02.335Z,99786.91
2022-10-10T12:23:30.131Z,99788.72
2022-10-10T12:25:57.554Z,99779.75
2022-10-10T12:28:26.737Z,99785.97
2022-10-10T12:30:58.452Z,99773.53
2022-10-10T12:33:26.170Z,99782.16
2022-10-10T12:35:53.583Z,99779.59
2022-10-10T12:38:24.150Z,99784.69
2022-10-10T12:40:57.757Z,99781.66
2022-10-10T12:43:26.049Z,99788.31
2022-10-10T12:45:53.406Z,99784.06
2022-10-10T12:48:20.523Z,99781.59
2022-10-10T12:51:00.420Z,99777.94
2022-10-10T12:53:28.689Z,99781.81
2022-10-10T12:56:00.879Z,99775.72
2022-10-10T12:58:29.954Z,99767.94
2022-10-10T13:00:58.391Z,99777.28
2022-10-10T13:03:25.438Z,99767.34
2022-10-10T13:05:52.853Z,99762.47
2022-10-10T13:08:21.011Z,99756.81
2022-10-10T13:11:05.649Z,99765.16
2022-10-10T13:13:33.394Z,99763.47
2022-10-10T13:16:05.677Z,99763.38
2022-10-10T13:18:34.066Z,99759.88
2022-10-10T13:21:02.318Z,99754.41
2022-10-10T13:23:29.586Z,99751.59
2022-10-10T13:25:56.724Z,99741.75
2022-10-10T13:28:24.198Z,99739.84
2022-10-10T13:30:51.348Z,99736.44
2022-10-10T13:33:19.348Z,99742.22
2022-10-10T13:35:46.736Z,99746.84
2022-10-10T13:38:14.460Z,99749.94
2022-10-10T13:40:42.000Z,99753.16
2022-10-10T13:43:16.420Z,99737.53
2022-10-10T13:45:49.737Z,99741.13
2022-10-10T13:48:18.777Z,99737.31
2022-10-10T13:50:47.867Z,99741.63
2022-10-10T13:53:28.713Z,99729.72
2022-10-10T13:56:25.012Z,99727.41
2022-10-10T13:59:01.283Z,99732.25
2022-10-10T14:01:31.563Z,99735.41
2022-10-10T14:04:06.985Z,99722.22
2022-10-10T14:06:34.174Z,99726.69
2022-10-10T14:09:26.037Z,99715.44
2022-10-10T14:11:53.484Z,99708.22
2022-10-10T14:14:32.420Z,99708.28
2022-10-10T14:17:03.136Z,99707.81
2022-10-10T14:19:30.861Z,99714.53
2022-10-10T14:21:57.994Z,99709.47
2022-10-10T14:24:25.397Z,99709.81
2022-10-10T14:26:52.778Z,99706.88
2022-10-10T14:29:19.986Z,99716.41
2022-10-10T14:31:47.343Z,99709.63
2022-10-10T14:34:15.032Z,99708.28
2022-10-10T14:36:45.227Z,99709.25
2022-10-10T14:39:13.681Z,99704.31
2022-10-10T14:41:41.062Z,99699.97
2022-10-10T14:44:08.197Z,99703.63
2022-10-10T14:46:35.316Z,99705.81
2022-10-10T14:49:02.708Z,99700.19
2022-10-10T14:51:34.503Z,99705.31
2022-10-10T14:54:09.826Z,99700.31
2022-10-10T14:57:09.252Z,99690.72
2022-10-10T14:59:47.365Z,99696.97
2022-10-10T15:02:16.089Z,99694.41
2022-10-10T15:04:43.492Z,99693.19
2022-10-10T15:07:14.420Z,99692.88
2022-10-10T15:12:34.139Z,99688.31
2022-10-10T15:15:01.308Z,99688.13
2022-10-10T15:17:30.394Z,99687.25
2022-10-10T15:19:57.777Z,99697.97
2022-10-10T15:22:24.951Z,99684.72
2022-10-10T15:24:52.046Z,99685.50
2022-10-10T15:27:19.454Z,99686.19
2022-10-10T15:29:46.588Z,99693.03
2022-10-10T15:32:13.691Z,99688.41
2022-10-10T15:34:41.075Z,99676.75
2022-10-10T15:37:10.447Z,99688.69
2022-10-10T15:39:37.935Z,99681.50
2022-10-10T15:42:12.239Z,99683.50
2022-10-10T15:44:45.238Z,99690.69
2022-10-10T15:47:12.980Z,99674.56
2022-10-10T15:49:40.086Z,99675.09
2022-10-10T15:52:07.716Z,99681.81
2022-10-10T15:54:35.159Z,99674.00
2022-10-10T15:57:02.273Z,99678.63
2022-10-10T15:59:29.486Z,99676.78
2022-10-10T16:01:56.898Z,99687.75
2022-10-10T16:04:25.288Z,99681.44
2022-10-10T16:07:19.346Z,99682.50
2022-10-10T16:09:40.800Z,99681.69
2022-10-10T16:12:07.927Z,99682.84
2022-10-10T16:14:35.069Z,99682.69
2022-10-10T16:17:02.483Z,99681.00
2022-10-10T16:19:29.592Z,99679.81
2022-10-10T16:21:56.818Z,99677.62
2022-10-10T16:24:24.245Z,99676.62
2022-10-10T16:26:51.389Z,99681.31
2022-10-10T16:29:18.767Z,99686.72
2022-10-10T16:31:46.177Z,99669.06
2022-10-10T16:34:15.872Z,99670.41
2022-10-10T16:36:43.150Z,99682.34
2022-10-10T16:39:10.587Z,99679.50
2022-10-10T16:41:52.940Z,99675.22
2022-10-10T16:44:20.347Z,99676.69
2022-10-10T16:46:47.482Z,99680.34
2022-10-10T16:49:16.788Z,99681.56
2022-10-10T16:51:44.319Z,99684.75
2022-10-10T16:54:11.429Z,99679.44
2022-10-10T16:56:38.570Z,99685.03
2022-10-10T16:59:06.023Z,99684.88
2022-10-10T17:01:33.451Z,99687.87
2022-10-10T17:04:01.293Z,99684.22
2022-10-10T17:06:34.888Z,99692.22
2022-10-10T17:09:02.909Z,99696.69
2022-10-10T17:11:30.567Z,99701.50
2022-10-10T17:13:57.739Z,99694.41
2022-10-10T17:19:13.081Z,99697.00
2022-10-10T17:21:40.193Z,99696.81
2022-10-10T17:24:07.336Z,99700.12
2022-10-10T17:26:34.732Z,99695.84
2022-10-10T17:29:01.931Z,99683.75
2022-10-10T17:31:29.090Z,99698.28
2022-10-10T17:33:56.872Z,99685.25
2022-10-10T17:36:24.886Z,99687.34
2022-10-10T17:38:52.329Z,99689.53
2022-10-10T17:41:19.917Z,99681.75
2022-10-10T17:43:47.045Z,99679.63
2022-10-10T17:46:35.842Z,99683.94
2022-10-10T17:49:04.735Z,99674.19
2022-10-10T17:51:31.891Z,99673.75
2022-10-10T17:53:59.528Z,99672.56
2022-10-10T17:56:27.193Z,99670.00
2022-10-10T17:58:54.419Z,99677.62
2022-10-10T18:01:21.721Z,99678.19
2022-10-10T18:03:49.185Z,99678.75
2022-10-10T18:06:18.042Z,99679.66
2022-10-10T18:08:49.717Z,99686.47
2022-10-10T18:11:24.199Z,99686.25
2022-10-10T18:13:52.054Z,99677.97
2022-10-10T18:16:20.753Z,99677.12
2022-10-10T18:18:51.372Z,99683.19
2022-10-10T18:21:21.296Z,99673.34
2022-10-10T18:23:48.779Z,99679.47
2022-10-10T18:26:20.875Z,99675.72
2022-10-10T18:28:49.087Z,99688.37
2022-10-10T18:31:24.795Z,99667.44
2022-10-10T18:33:52.348Z,99681.25
2022-10-10T18:36:27.402Z,99682.91
2022-10-10T18:38:55.257Z,99673.41
2022-10-10T18:41:23.447Z,99675.06
2022-10-10T18:43:51.336Z,99679.28
2022-10-10T18:46:20.410Z,99680.28
2022-10-10T18:48:51.506Z,99677.56
2022-10-10T18:51:24.119Z,99683.31
2022-10-10T18:53:52.097Z,99686.97
2022-10-10T18:56:24.910Z,99690.25
2022-10-10T18:58:53.824Z,99683.78
2022-10-10T19:01:24.932Z,99685.62
2022-10-10T19:03:53.171Z,99682.97
2022-10-10T19:06:21.549Z,99673.41
2022-10-10T19:08:48.951Z,99671.91
2022-10-10T19:11:26.887Z,99678.03
2022-10-10T19:13:54.164Z,99676.09
2022-10-10T19:16:21.894Z,99678.69
2022-10-10T19:18:49.101Z,99674.00
2022-10-10T19:21:16.638Z,99682.69
2022-10-10T19:23:44.408Z,99684.53
2022-10-10T19:26:13.433Z,99683.38
2022-10-10T19:28:40.955Z,99684.47
2022-10-10T19:31:09.603Z,99687.03
2022-10-10T19:33:36.869Z,99682.50
2022-10-10T19:36:05.104Z,99685.91
2022-10-10T19:38:36.166Z,99679.38
2022-10-10T19:41:07.302Z,99681.34
2022-10-10T19:43:34.745Z,99685.84
2022-10-10T19:46:08.626Z,99685.88
2022-10-10T19:48:37.081Z,99691.91
2022-10-10T19:51:05.259Z,99690.72
2022-10-10T19:53:33.596Z,99691.38
2022-10-10T19:56:02.353Z,99685.81
2022-10-10T19:58:29.962Z,99691.66
2022-10-10T20:00:57.148Z,99687.28
2022-10-10T20:03:24.730Z,99697.91
2022-10-10T20:05:51.840Z,99695.66
2022-10-10T20:08:20.215Z,99687.53
2022-10-10T20:10:47.845Z,99682.66
2022-10-10T20:13:16.142Z,99687.94
2022-10-10T20:15:44.006Z,99677.91
2022-10-10T20:18:11.666Z,99670.88
2022-10-10T20:20:42.335Z,99679.06
2022-10-10T20:23:10.947Z,99674.38
2022-10-10T20:25:39.087Z,99681.63
2022-10-10T20:28:06.580Z,99679.66
2022-10-10T20:30:33.791Z,99681.63
2022-10-10T20:33:01.227Z,99681.16
2022-10-10T20:35:28.346Z,99675.28
2022-10-10T20:37:55.470Z,99681.56
2022-10-10T20:40:22.866Z,99681.41
2022-10-10T20:42:50.013Z,99678.75
2022-10-10T20:45:17.155Z,99680.25
2022-10-10T20:47:44.524Z,99681.59
2022-10-10T20:50:13.067Z,99676.34
2022-10-10T20:52:40.220Z,99682.06
2022-10-10T20:55:07.823Z,99673.91
2022-10-10T20:57:34.932Z,99678.50
2022-10-10T21:00:02.044Z,99675.53
2022-10-10T21:02:29.622Z,99672.19
2022-10-10T21:04:56.979Z,99672.09
2022-10-10T21:07:24.121Z,99667.72
2022-10-10T21:09:51.513Z,99668.41
2022-10-10T21:12:18.616Z,99678.34
2022-10-10T21:14:45.732Z,99671.84
2022-10-10T21:17:13.106Z,99673.75
2022-10-10T21:19:40.233Z,99676.38
2022-10-10T21:22:07.354Z,99679.94
2022-10-10T21:24:34.752Z,99683.44
2022-10-10T21:27:01.874Z,99680.16
2022-10-10T21:29:28.991Z,99683.13
2022-10-10T21:31:56.379Z,99684.28
2022-10-10T21:34:23.501Z,99681.41
2022-10-10T21:36:50.643Z,99682.34
2022-10-10T21:39:18.046Z,99677.72
2022-10-10T21:41:45.165Z,99683.25
2022-10-10T21:44:12.327Z,99684.72
2022-10-10T21:46:39.749Z,99677.91
2022-10-10T21:49:07.877Z,99679.38
2022-10-10T21:51:36.538Z,99678.41
2022-10-10T21:54:03.972Z,99685.88
2022-10-10T21:56:31.082Z,99682.94
2022-10-10T21:59:01.244Z,99676.97
2022-10-10T22:01:29.433Z,99684.91
2022-10-10T22:03:56.946Z,99687.28
2022-10-10T22:06:24.419Z,99683.66
2022-10-10T22:08:52.465Z,99679.94
2022-10-10T22:11:20.896Z,99686.16
2022-10-10T22:13:48.189Z,99678.38
2022-10-10T22:16:15.449Z,99677.19
2022-10-10T22:18:43.036Z,99674.31
2022-10-10T22:21:11.615Z,99674.53
2022-10-10T22:23:38.747Z,99672.69
2022-10-10T22:26:12.708Z,99664.53
2022-10-10T22:28:39.869Z,99665.34
2022-10-10T22:31:08.078Z,99670.69
2022-10-10T22:33:35.269Z,99654.97
2022-10-10T22:36:03.023Z,99660.13
2022-10-10T22:38:30.678Z,99661.22
2022-10-10T22:41:16.607Z,99658.25
2022-10-10T22:43:44.036Z,99663.03
2022-10-10T22:46:11.174Z,99662.06
2022-10-10T22:48:38.335Z,99655.91
2022-10-10T22:51:06.853Z,99661.75
2022-10-10T22:53:34.121Z,99656.09
2022-10-10T22:56:01.341Z,99664.06
2022-10-10T22:58:29.043Z,99657.44
2022-10-10T23:00:56.231Z,99648.53
2022-10-10T23:03:23.410Z,99651.34
2022-10-10T23:05:50.827Z,99653.22
2022-10-10T23:08:17.941Z,99646.09
2022-10-10T23:10:45.615Z,99649.91
2022-10-10T23:13:13.023Z,99643.66
2022-10-10T23:15:40.128Z,99657.87
2022-10-10T23:18:07.364Z,99652.78
2022-10-10T23:20:34.748Z,99650.94
2022-10-10T23:23:01.860Z,99649.16
2022-10-10T23:25:29.158Z,99650.81
2022-10-10T23:27:56.546Z,99654.75
2022-10-10T23:30:23.754Z,99651.06
2022-10-10T23:32:50.887Z,99653.19
2022-10-10T23:35:18.570Z,99651.06
2022-10-10T23:37:45.685Z,99645.72
2022-10-10T23:40:12.870Z,99648.16
2022-10-10T23:42:40.244Z,99647.91
2022-10-10T23:45:21.953Z,99630.16
2022-10-10T23:48:00.988Z,99634.63
2022-10-10T23:50:42.173Z,99642.56
2022-10-10T23:53:22.571Z,99640.91
2022-10-10T23:55:50.075Z,99640.34
2022-10-10T23:58:17.480Z,99648.63
